Grand Prairie, TX

6:27 AM CST on December 27, 2014 (GMT -0600)
North Central | Change Station
CLOSE
Current Station
Personal Weather Station
Location: Grand Prairie, TX
Elevation: 480 ft
Nearby Weather Stations

Elev 480 ft 32.76 °N, 97.02 °W | Updated 7 seconds ago

Overcast
Overcast
45.1 °F
Feels Like 45 °F
N
0.0
Wind Variable Wind from North
Gusts 0.0 mph

Today
High -- | Low -- °F
--% Chance of Precip.
Yesterday
High -- | Low -- °F
Precip. -- in
7:29 AM 5:29 PM
Waxing Crescent, 36% visible
Pressure 30.12 in
Visibility 10.0 miles
Clouds Mostly Cloudy 1600 ft
Windchill 45 °F
Dew Point 33 °F
Humidity 63%
Rainfall 0.00 in
Snow Depth Not available.
UV 0 out of 12
Pollen 10.70 out of 12
Air Quality Not available.
Flu Activity Not available.
METAR KGPM 271135Z AUTO 35014G21KT 10SM BKN016 07/05 A3012 RMK AO2 T00660045

More Conditions Fewer Conditions

Pressure 30.12 in
Visibility 10.0 miles
Clouds Mostly Cloudy 1600 ft
Windchill 45 °F
Dew Point 33 °F
Humidity 63%
Rainfall 0.00 in
Snow Depth Not available.
UV 0 out of 12
Pollen 10.70 out of 12
Air Quality Not available.
Flu Activity Not available.
METAR KGPM 271135Z AUTO 35014G21KT 10SM BKN016 07/05 A3012 RMK AO2 T00660045

More Conditions Fewer Conditions

Nowcast | as of 5:00 am CST on December 27, 2014

A cold front will move from an Emory to Temple line and reach an Athens to Hearne line by 7 am. Scattered showers will continue near and just ahead of the front while patchy drizzle and fog will prevail out ahead of the front through sunrise. A few locations may see brief dense fog that will reduce the visibility below a half mile. Total rainfall amounts will average less than one tenth of an inch for areas that do receive rain.

×

10-Day Weather Forecast

Almanac

Astronomy

Dec. 27, 2014 Rise Set
Actual Time
Civil Twilight
Nautical Twilight
Astronomical Twilight
Moon
Length of Visible Light
Length of Day
Tomorrow will be .
, % of the Moon is Illuminated

Today's Extremes

State Highs State Lows

Community

WunderPhotos

Upload Photos

1,780,886 photos uploaded!

WunderBlogs® & News

Nearby

Air Quality

  Air Quality AQ Index Pollutant
Not available.

Snow Depth

Station Depth Elevation

Earthquake Activity

City Distance Mag. Time & Date
Minimum magnitude displayed is 2.5.

Coastal Water Temperatures

Place Temperature

Nearby Weather Stations